createdAt,value
2019-05-11T00:00:55.201Z,71.85
2019-05-11T00:03:24.965Z,71.83
2019-05-11T00:05:55.204Z,71.89
2019-05-11T00:08:26.533Z,72.25
2019-05-11T00:10:54.863Z,72.12
2019-05-11T00:13:25.311Z,71.93
2019-05-11T00:15:55.339Z,71.74
2019-05-11T00:18:25.520Z,71.76
2019-05-11T00:20:55.477Z,71.81
2019-05-11T00:23:26.584Z,72.13
2019-05-11T00:25:56.872Z,72.57
2019-05-11T00:28:26.890Z,72.91
2019-05-11T00:30:57.319Z,73.21
2019-05-11T00:33:27.081Z,73.50
2019-05-11T00:35:57.552Z,73.66
2019-05-11T00:38:28.880Z,73.66
2019-05-11T00:40:59.195Z,73.88
2019-05-11T00:43:29.238Z,73.96
2019-05-11T00:45:59.967Z,74.00
2019-05-11T00:48:29.764Z,74.07
2019-05-11T00:50:58.123Z,74.08
2019-05-11T00:53:27.693Z,74.21
2019-05-11T00:55:57.754Z,74.60
2019-05-11T00:58:27.946Z,74.35
2019-05-11T01:00:58.175Z,74.19
2019-05-11T01:03:27.935Z,74.20
2019-05-11T01:05:58.260Z,74.04
2019-05-11T01:08:28.598Z,73.96
2019-05-11T01:10:58.859Z,74.13
2019-05-11T01:13:28.868Z,74.00
2019-05-11T01:15:59.044Z,74.28
2019-05-11T01:18:27.327Z,74.26
2019-05-11T01:20:57.563Z,74.26
2019-05-11T01:23:27.332Z,74.44
2019-05-11T01:25:57.898Z,74.75
2019-05-11T01:28:27.961Z,75.01
2019-05-11T01:30:58.226Z,75.33
2019-05-11T01:33:27.418Z,75.34
2019-05-11T01:35:58.044Z,75.45
2019-05-11T01:38:28.343Z,75.32
2019-05-11T01:40:59.342Z,75.98
2019-05-11T01:43:28.940Z,76.24
2019-05-11T01:45:59.431Z,75.98
2019-05-11T01:48:29.872Z,76.21
2019-05-11T01:50:59.358Z,76.15
2019-05-11T01:53:29.116Z,76.34
2019-05-11T01:55:59.204Z,76.44
2019-05-11T01:58:30.059Z,76.27
2019-05-11T02:01:00.308Z,76.50
2019-05-11T02:03:30.640Z,76.42
2019-05-11T02:06:00.913Z,76.37
2019-05-11T02:08:30.947Z,76.49
2019-05-11T02:11:14.814Z,76.23
2019-05-11T02:13:53.212Z,76.27
2019-05-11T02:16:23.287Z,75.93
2019-05-11T02:18:53.740Z,75.43
2019-05-11T02:21:23.751Z,75.68
2019-05-11T02:23:54.055Z,75.43
2019-05-11T02:26:24.150Z,75.52
2019-05-11T02:28:52.936Z,75.58
2019-05-11T02:31:23.580Z,75.62
2019-05-11T02:33:53.737Z,75.54
2019-05-11T02:36:24.020Z,75.07
2019-05-11T02:38:54.366Z,74.79
2019-05-11T02:41:35.297Z,75.05
2019-05-11T02:43:55.149Z,75.20
2019-05-11T02:46:25.079Z,75.28
2019-05-11T02:48:54.651Z,75.33
2019-05-11T02:51:25.039Z,75.22
2019-05-11T02:53:55.827Z,75.01
2019-05-11T02:56:24.879Z,74.89
2019-05-11T02:58:55.345Z,75.02
2019-05-11T03:01:25.110Z,74.91
2019-05-11T03:03:55.289Z,74.92
2019-05-11T03:06:25.394Z,75.19
2019-05-11T03:08:55.260Z,75.28
2019-05-11T03:11:25.487Z,75.33
2019-05-11T03:13:54.875Z,75.39
2019-05-11T03:16:25.427Z,75.32
2019-05-11T03:18:55.520Z,75.40
2019-05-11T03:21:23.994Z,75.59
2019-05-11T03:23:54.298Z,75.57
2019-05-11T03:26:25.995Z,75.29
2019-05-11T03:28:56.095Z,74.97
2019-05-11T03:31:26.600Z,74.69
2019-05-11T03:33:56.727Z,74.88
2019-05-11T03:36:25.880Z,75.15
2019-05-11T03:38:55.844Z,75.48
2019-05-11T03:41:25.967Z,75.80
2019-05-11T03:43:55.908Z,76.23
2019-05-11T03:46:26.135Z,76.86
2019-05-11T03:48:56.345Z,77.28
2019-05-11T03:51:26.542Z,77.29
2019-05-11T03:53:56.882Z,77.42
2019-05-11T03:56:27.350Z,77.27
2019-05-11T03:58:57.297Z,77.32
2019-05-11T04:01:27.990Z,77.35
2019-05-11T04:03:57.831Z,77.34
2019-05-11T04:06:48.173Z,77.60
2019-05-11T04:09:18.287Z,77.34
2019-05-11T04:11:48.771Z,76.97
2019-05-11T04:14:38.883Z,77.05
2019-05-11T04:17:09.164Z,77.19
2019-05-11T04:19:58.525Z,77.12
2019-05-11T04:22:29.907Z,77.03
2019-05-11T04:24:59.849Z,76.94
2019-05-11T04:27:30.283Z,76.75
2019-05-11T04:30:00.105Z,76.75
2019-05-11T04:32:28.403Z,76.91
2019-05-11T04:34:58.487Z,77.14
2019-05-11T04:37:29.347Z,77.36
2019-05-11T04:40:19.618Z,76.93
2019-05-11T04:42:55.763Z,76.64
2019-05-11T04:45:21.577Z,76.17
2019-05-11T04:47:52.403Z,75.80
2019-05-11T04:50:23.184Z,75.53
2019-05-11T04:52:53.705Z,75.24
2019-05-11T04:55:23.743Z,75.11
2019-05-11T04:57:55.916Z,74.80
2019-05-11T05:00:27.367Z,74.68
2019-05-11T05:02:58.017Z,74.57
2019-05-11T05:05:28.339Z,74.62
2019-05-11T05:08:09.249Z,74.40
2019-05-11T05:10:31.096Z,74.35
2019-05-11T05:13:10.299Z,74.34
2019-05-11T05:15:33.291Z,74.38
2019-05-11T05:18:03.752Z,74.16
2019-05-11T05:20:33.874Z,74.01
2019-05-11T05:23:04.225Z,73.91
2019-05-11T05:25:34.163Z,74.17
2019-05-11T05:28:04.472Z,73.85
2019-05-11T05:30:34.478Z,73.88
2019-05-11T05:33:05.009Z,73.80
2019-05-11T05:35:35.002Z,73.75
2019-05-11T05:38:05.188Z,73.52
2019-05-11T05:40:35.244Z,73.43
2019-05-11T05:43:03.527Z,73.10
2019-05-11T05:45:33.813Z,73.02
2019-05-11T05:48:02.275Z,73.00
2019-05-11T05:50:32.921Z,73.09
2019-05-11T05:53:03.030Z,72.89
2019-05-11T05:55:33.280Z,72.61
2019-05-11T05:58:06.012Z,72.43
2019-05-11T06:00:36.326Z,72.35
2019-05-11T06:03:05.051Z,72.30
2019-05-11T06:05:35.346Z,72.22
2019-05-11T06:08:05.690Z,72.20
2019-05-11T06:10:36.558Z,72.19
2019-05-11T06:13:05.546Z,72.00
2019-05-11T06:15:35.856Z,71.89
2019-05-11T06:18:06.157Z,72.05
2019-05-11T06:20:37.262Z,71.78
2019-05-11T06:23:06.972Z,71.62
2019-05-11T06:25:36.026Z,71.54
2019-05-11T06:28:06.159Z,71.41
2019-05-11T06:30:36.402Z,71.22
2019-05-11T06:33:06.267Z,71.01
2019-05-11T06:35:38.078Z,70.75
2019-05-11T06:38:09.585Z,70.85
2019-05-11T06:40:39.892Z,70.85
2019-05-11T06:43:10.249Z,70.84
2019-05-11T06:45:40.370Z,70.43
2019-05-11T06:48:11.853Z,69.33
2019-05-11T06:51:02.859Z,69.38
2019-05-11T06:53:32.828Z,68.58
2019-05-11T06:56:02.956Z,68.33
2019-05-11T06:58:31.919Z,67.65
2019-05-11T07:01:01.702Z,67.08
2019-05-11T07:03:30.548Z,66.87
2019-05-11T07:06:00.958Z,66.38
2019-05-11T07:08:30.519Z,66.65
2019-05-11T07:11:00.367Z,66.20
2019-05-11T07:13:30.728Z,66.61
2019-05-11T07:16:00.637Z,66.02
2019-05-11T07:18:29.934Z,65.63
2019-05-11T07:20:59.818Z,65.11
2019-05-11T07:23:30.207Z,64.23
2019-05-11T07:26:00.300Z,63.98
2019-05-11T07:28:32.022Z,64.39
2019-05-11T07:31:01.741Z,64.43
2019-05-11T07:33:32.149Z,64.50
2019-05-11T07:36:02.692Z,63.68
2019-05-11T07:38:32.140Z,63.17
2019-05-11T07:41:02.442Z,61.94
2019-05-11T07:43:32.739Z,61.67
2019-05-11T07:46:03.451Z,60.98
2019-05-11T07:48:34.406Z,60.22
2019-05-11T07:51:04.780Z,60.14
2019-05-11T07:53:34.940Z,59.92
2019-05-11T07:56:05.317Z,59.06
2019-05-11T07:58:35.747Z,58.78
2019-05-11T08:01:08.480Z,58.46
2019-05-11T08:03:38.840Z,58.41
2019-05-11T08:06:09.010Z,58.62
2019-05-11T08:08:41.746Z,58.70
2019-05-11T08:11:12.065Z,58.13
2019-05-11T08:13:42.037Z,58.55
2019-05-11T08:16:12.125Z,58.21
2019-05-11T08:18:42.327Z,57.62
2019-05-11T08:21:12.924Z,57.04
2019-05-11T08:23:42.475Z,57.11
2019-05-11T08:26:13.549Z,56.91
2019-05-11T08:28:43.597Z,56.79
2019-05-11T08:31:14.031Z,55.81
2019-05-11T08:33:43.908Z,55.62
2019-05-11T08:36:12.935Z,54.94
2019-05-11T08:38:41.234Z,54.44
2019-05-11T08:41:09.648Z,53.83
2019-05-11T08:43:38.883Z,54.38
2019-05-11T08:46:08.161Z,54.81
2019-05-11T08:48:38.624Z,53.72
2019-05-11T08:51:08.437Z,53.39
2019-05-11T08:53:38.764Z,53.03
2019-05-11T08:56:11.139Z,53.01
2019-05-11T08:58:38.120Z,52.71
2019-05-11T09:01:08.781Z,52.11
2019-05-11T09:03:38.700Z,53.54
2019-05-11T09:06:08.441Z,57.54
2019-05-11T09:08:38.829Z,58.44
2019-05-11T09:11:08.429Z,58.41
2019-05-11T09:13:39.204Z,58.72
2019-05-11T09:16:07.898Z,59.04
2019-05-11T09:18:38.571Z,58.40
2019-05-11T09:21:08.308Z,57.26
2019-05-11T09:23:39.944Z,55.58
2019-05-11T09:26:08.789Z,52.47
2019-05-11T09:28:38.425Z,53.34
2019-05-11T09:31:08.515Z,52.54
2019-05-11T09:33:38.628Z,52.23
2019-05-11T09:36:08.499Z,51.80
2019-05-11T09:38:38.531Z,52.51
2019-05-11T09:41:08.949Z,52.54
2019-05-11T09:43:37.718Z,53.13
2019-05-11T09:46:08.362Z,53.30
2019-05-11T09:48:37.809Z,52.45
2019-05-11T09:51:07.856Z,51.10
2019-05-11T09:53:38.762Z,49.88
2019-05-11T09:56:28.758Z,50.51
2019-05-11T09:58:58.142Z,49.71
2019-05-11T10:01:26.659Z,47.43
2019-05-11T10:03:57.896Z,45.10
2019-05-11T10:06:28.166Z,46.19
2019-05-11T10:08:57.921Z,43.83
2019-05-11T10:11:28.212Z,44.55
2019-05-11T10:13:57.764Z,44.20
2019-05-11T10:16:28.035Z,43.17
2019-05-11T10:18:56.324Z,40.80
2019-05-11T10:21:24.660Z,40.39
2019-05-11T10:23:53.071Z,40.33
2019-05-11T10:26:21.453Z,40.70
2019-05-11T10:28:51.572Z,41.61
2019-05-11T10:31:20.382Z,39.29
2019-05-11T10:33:49.268Z,40.53
2019-05-11T10:36:18.952Z,40.22
2019-05-11T10:38:48.789Z,39.96
2019-05-11T10:41:18.350Z,40.40
2019-05-11T10:43:48.905Z,40.50
2019-05-11T10:46:22.915Z,39.88
2019-05-11T10:48:48.155Z,38.82
2019-05-11T10:51:18.344Z,39.78
2019-05-11T10:53:52.049Z,40.08
2019-05-11T10:56:21.443Z,40.41
2019-05-11T10:58:49.933Z,39.93
2019-05-11T11:01:18.405Z,38.81
2019-05-11T11:03:48.340Z,38.42
2019-05-11T11:06:18.815Z,38.44
2019-05-11T11:08:48.678Z,38.88
2019-05-11T11:11:19.441Z,38.65
2019-05-11T11:13:48.877Z,38.40
2019-05-11T11:16:35.089Z,38.81
2019-05-11T11:18:48.869Z,39.30
2019-05-11T11:21:22.622Z,39.57
2019-05-11T11:23:50.286Z,39.93
2019-05-11T11:26:20.416Z,40.14
2019-05-11T11:28:50.304Z,39.85
2019-05-11T11:31:19.477Z,40.08
2019-05-11T11:33:48.886Z,40.14
2019-05-11T11:36:19.156Z,39.41
2019-05-11T11:38:48.494Z,38.87
2019-05-11T11:41:18.588Z,38.43
2019-05-11T11:43:48.271Z,39.34
2019-05-11T11:46:18.837Z,39.36
2019-05-11T11:48:48.934Z,39.71
2019-05-11T11:51:18.743Z,39.40
2019-05-11T11:53:48.039Z,39.41
2019-05-11T11:56:18.894Z,39.95
2019-05-11T11:58:48.848Z,39.93
2019-05-11T12:01:18.975Z,40.69
2019-05-11T12:03:48.722Z,40.65
2019-05-11T12:06:18.211Z,40.76
2019-05-11T12:08:49.792Z,40.70
2019-05-11T12:11:18.644Z,40.58
2019-05-11T12:13:47.782Z,40.55
2019-05-11T12:16:18.045Z,40.44
2019-05-11T12:19:05.347Z,39.08
2019-05-11T12:21:34.017Z,39.02
2019-05-11T12:24:02.434Z,38.93
2019-05-11T12:26:30.921Z,39.04
2019-05-11T12:29:00.266Z,39.70
2019-05-11T12:31:32.374Z,39.48
2019-05-11T12:33:58.813Z,38.51
2019-05-11T12:36:28.107Z,38.49
2019-05-11T12:39:03.556Z,37.79
2019-05-11T12:41:31.909Z,38.17
2019-05-11T12:44:00.993Z,38.21
2019-05-11T12:46:30.265Z,38.08
2019-05-11T12:49:01.483Z,38.03
2019-05-11T12:51:29.985Z,38.13
2019-05-11T12:53:58.916Z,38.79
2019-05-11T12:56:27.842Z,39.73
2019-05-11T12:58:58.243Z,40.79
2019-05-11T13:01:28.907Z,40.07
2019-05-11T13:03:58.032Z,38.62
2019-05-11T13:07:03.308Z,37.78
2019-05-11T13:09:33.456Z,37.76
2019-05-11T13:12:02.972Z,38.55
2019-05-11T13:14:32.377Z,37.89
2019-05-11T13:17:01.311Z,36.71
2019-05-11T13:19:29.802Z,37.18
2019-05-11T13:21:59.005Z,37.37
2019-05-11T13:24:28.229Z,37.10
2019-05-11T13:26:59.599Z,37.11
2019-05-11T13:29:28.696Z,37.66
2019-05-11T13:31:59.038Z,37.93
2019-05-11T13:34:31.239Z,37.61
2019-05-11T13:36:57.602Z,38.23
2019-05-11T13:39:25.863Z,38.56
2019-05-11T13:41:54.403Z,38.81
2019-05-11T13:44:24.400Z,39.78
2019-05-11T13:46:52.806Z,42.80
2019-05-11T13:49:21.344Z,49.15
2019-05-11T13:51:49.678Z,49.60
2019-05-11T13:54:18.728Z,51.72
2019-05-11T13:56:48.371Z,51.83
2019-05-11T13:59:18.850Z,52.94
2019-05-11T14:01:48.103Z,54.07
2019-05-11T14:04:18.216Z,53.97
2019-05-11T14:06:48.169Z,55.77
2019-05-11T14:09:18.521Z,55.86
2019-05-11T14:11:48.024Z,56.31
2019-05-11T14:14:18.456Z,56.12
2019-05-11T14:16:48.550Z,57.51
2019-05-11T14:19:17.969Z,57.01
2019-05-11T14:21:48.786Z,57.62
2019-05-11T14:24:18.378Z,57.13
2019-05-11T14:26:48.782Z,56.32
2019-05-11T14:29:19.164Z,55.54
2019-05-11T14:31:49.391Z,55.97
2019-05-11T14:34:19.195Z,56.61
2019-05-11T14:36:48.471Z,57.32
2019-05-11T14:39:19.012Z,58.12
2019-05-11T14:41:48.768Z,58.00
2019-05-11T14:44:18.151Z,57.22
2019-05-11T14:46:47.830Z,57.07
2019-05-11T14:49:18.425Z,55.01
2019-05-11T14:51:48.557Z,54.23
2019-05-11T14:54:18.848Z,53.64
2019-05-11T14:56:48.178Z,53.92
2019-05-11T14:59:18.425Z,54.58
2019-05-11T15:01:49.025Z,56.13
2019-05-11T15:11:48.161Z,55.43
2019-05-11T15:14:19.695Z,56.15
2019-05-11T15:16:48.634Z,58.07
2019-05-11T15:19:18.543Z,58.46
2019-05-11T15:21:47.581Z,58.40
2019-05-11T15:24:18.290Z,59.81
2019-05-11T15:26:48.542Z,60.21
2019-05-11T15:29:18.691Z,60.76
2019-05-11T15:31:48.576Z,61.22
2019-05-11T15:34:18.593Z,61.61
2019-05-11T15:36:49.154Z,61.58
2019-05-11T15:39:18.412Z,61.83
2019-05-11T15:41:48.019Z,62.68
2019-05-11T15:44:18.575Z,62.92
2019-05-11T15:46:47.989Z,63.23
2019-05-11T15:49:18.001Z,62.66
2019-05-11T15:51:48.844Z,64.07
2019-05-11T15:54:18.673Z,63.54
2019-05-11T15:56:47.757Z,65.02
2019-05-11T15:59:16.106Z,64.86
2019-05-11T16:01:48.754Z,64.55
2019-05-11T16:04:18.077Z,66.19
2019-05-11T16:06:46.688Z,67.25
2019-05-11T16:09:18.874Z,66.26
2019-05-11T16:11:47.861Z,65.50
2019-05-11T16:14:16.344Z,64.79
2019-05-11T16:16:44.856Z,65.21
2019-05-11T16:19:15.108Z,64.14
2019-05-11T16:21:43.292Z,64.25
2019-05-11T16:24:11.597Z,63.91
2019-05-11T16:26:40.697Z,63.61
2019-05-11T16:29:11.440Z,62.69
2019-05-11T16:31:40.068Z,62.91
2019-05-11T16:34:08.362Z,62.95
2019-05-11T16:36:38.966Z,63.10
2019-05-11T16:39:10.029Z,63.02
2019-05-11T16:41:38.207Z,63.29
2019-05-11T16:44:07.940Z,63.38
2019-05-11T16:46:38.698Z,62.75
2019-05-11T16:49:06.557Z,62.86
2019-05-11T16:51:35.004Z,63.65
2019-05-11T16:54:03.465Z,63.49
2019-05-11T16:56:31.807Z,62.54
2019-05-11T16:59:00.432Z,62.04
2019-05-11T17:01:29.038Z,63.07
2019-05-11T17:03:57.923Z,63.60
2019-05-11T17:06:28.542Z,63.02
2019-05-11T17:08:58.030Z,63.05
2019-05-11T17:11:28.803Z,64.02
2019-05-11T17:13:57.567Z,63.91
2019-05-11T17:16:28.367Z,63.95
2019-05-11T17:18:58.412Z,64.04
2019-05-11T17:21:29.245Z,64.51
2019-05-11T17:23:57.934Z,65.08
2019-05-11T17:26:27.876Z,65.28
2019-05-11T17:28:58.164Z,65.64
2019-05-11T17:31:26.340Z,66.28
2019-05-11T17:33:55.285Z,66.13
2019-05-11T17:36:23.677Z,66.56
2019-05-11T17:38:52.106Z,67.74
2019-05-11T17:41:20.836Z,68.08
2019-05-11T17:43:49.609Z,68.33
2019-05-11T17:46:18.582Z,67.45
2019-05-11T17:48:47.305Z,67.88
2019-05-11T17:51:21.752Z,70.25
2019-05-11T17:53:48.096Z,72.25
2019-05-11T17:56:16.017Z,73.40
2019-05-11T17:58:44.316Z,73.29
2019-05-11T18:01:12.716Z,74.17
2019-05-11T18:03:41.081Z,76.78
2019-05-11T18:06:09.459Z,76.19
2019-05-11T18:08:37.823Z,75.94
2019-05-11T18:11:08.402Z,75.75
2019-05-11T18:13:39.043Z,77.51
2019-05-11T18:16:08.510Z,76.99
2019-05-11T18:18:37.867Z,77.65
2019-05-11T18:21:08.512Z,79.43
2019-05-11T18:23:38.573Z,79.59
2019-05-11T18:26:08.659Z,79.35
2019-05-11T18:28:37.813Z,78.65
2019-05-11T18:31:06.696Z,77.59
2019-05-11T18:33:35.046Z,77.76
2019-05-11T18:36:03.392Z,76.96
2019-05-11T18:38:32.001Z,77.71
2019-05-11T18:41:09.618Z,77.92
2019-05-11T18:43:37.927Z,78.01
2019-05-11T18:46:08.464Z,78.03
2019-05-11T18:48:38.087Z,77.68
2019-05-11T18:51:08.689Z,77.04
2019-05-11T18:53:36.857Z,77.79
2019-05-11T18:56:08.664Z,76.53
2019-05-11T18:58:38.382Z,76.19
2019-05-11T19:01:06.895Z,76.25
2019-05-11T19:03:35.391Z,77.28
2019-05-11T19:06:03.809Z,76.34
2019-05-11T19:08:32.234Z,76.10
2019-05-11T19:11:00.613Z,76.70
2019-05-11T19:13:28.951Z,75.99
2019-05-11T19:15:58.332Z,76.54
2019-05-11T19:18:28.210Z,77.24
2019-05-11T19:20:58.586Z,77.00
2019-05-11T19:23:28.634Z,77.50
2019-05-11T19:25:57.867Z,77.28
2019-05-11T19:28:28.088Z,77.35
2019-05-11T19:30:58.965Z,77.71
2019-05-11T19:33:27.833Z,77.77
2019-05-11T19:35:58.484Z,77.20
2019-05-11T19:38:28.069Z,76.74
2019-05-11T19:40:58.780Z,76.85
2019-05-11T19:43:27.688Z,77.67
2019-05-11T19:45:58.184Z,77.86
2019-05-11T19:48:28.037Z,77.81
2019-05-11T19:51:04.585Z,78.65
2019-05-11T19:53:28.053Z,79.03
2019-05-11T19:55:58.404Z,78.62
2019-05-11T19:58:29.055Z,79.51
2019-05-11T20:00:58.035Z,78.16
2019-05-11T20:03:28.550Z,78.17
2019-05-11T20:05:58.069Z,77.45
2019-05-11T20:08:28.858Z,76.89
2019-05-11T20:10:56.737Z,77.23
2019-05-11T20:13:25.191Z,77.03
2019-05-11T20:15:53.695Z,76.81
2019-05-11T20:18:22.092Z,76.89
2019-05-11T20:20:50.489Z,76.75
2019-05-11T20:23:19.026Z,77.30
2019-05-11T20:25:47.850Z,77.64
2019-05-11T20:28:18.291Z,77.83
2019-05-11T20:30:48.263Z,77.58
2019-05-11T20:33:18.759Z,77.74
2019-05-11T20:35:48.663Z,78.00
2019-05-11T20:38:18.806Z,77.16
2019-05-11T20:40:48.456Z,77.33
2019-05-11T20:43:18.524Z,78.50
2019-05-11T20:45:48.648Z,77.68
2019-05-11T20:48:18.502Z,78.17
2019-05-11T20:50:48.372Z,77.78
2019-05-11T20:53:18.053Z,77.76
2019-05-11T20:55:47.891Z,77.35
2019-05-11T20:58:18.799Z,77.29
2019-05-11T21:00:48.463Z,77.44
2019-05-11T21:03:16.689Z,76.82
2019-05-11T21:05:45.093Z,77.29
2019-05-11T21:08:13.483Z,76.84
2019-05-11T21:10:42.740Z,77.32
2019-05-11T21:13:11.376Z,77.54
2019-05-11T21:15:39.738Z,77.50
2019-05-11T21:18:08.100Z,77.50
2019-05-11T21:20:38.022Z,77.91
2019-05-11T21:23:08.246Z,77.81
2019-05-11T21:25:37.814Z,77.20
2019-05-11T21:28:08.305Z,77.23
2019-05-11T21:30:39.654Z,77.19
2019-05-11T21:33:08.644Z,77.24
2019-05-11T21:35:38.591Z,78.32
2019-05-11T21:38:07.134Z,77.65
2019-05-11T21:40:37.936Z,77.42
2019-05-11T21:43:05.756Z,77.05
2019-05-11T21:45:34.061Z,77.04
2019-05-11T21:48:02.560Z,77.62
2019-05-11T21:50:30.868Z,77.34
2019-05-11T21:52:59.279Z,77.13
2019-05-11T21:55:29.329Z,77.16
2019-05-11T21:57:58.260Z,76.89
2019-05-11T22:00:28.876Z,76.62
2019-05-11T22:02:57.446Z,76.33
2019-05-11T22:05:25.868Z,76.67
2019-05-11T22:07:54.247Z,76.73
2019-05-11T22:10:22.662Z,77.19
2019-05-11T22:12:50.973Z,77.05
2019-05-11T22:15:19.428Z,76.72
2019-05-11T22:17:48.231Z,77.67
2019-05-11T22:20:18.369Z,77.13
2019-05-11T22:22:47.610Z,76.87
2019-05-11T22:25:18.288Z,76.79
2019-05-11T22:27:48.528Z,77.28
2019-05-11T22:30:19.623Z,77.66
2019-05-11T22:32:48.086Z,77.21
2019-05-11T22:35:18.392Z,77.23
2019-05-11T22:37:48.760Z,76.63
2019-05-11T22:40:16.940Z,76.35
2019-05-11T22:42:45.312Z,76.33
2019-05-11T22:45:14.051Z,77.16
2019-05-11T22:47:42.414Z,76.80
2019-05-11T22:50:11.361Z,76.93
2019-05-11T22:52:40.728Z,76.54
2019-05-11T22:55:12.017Z,76.50
2019-05-11T22:57:40.447Z,76.83
2019-05-11T23:00:10.159Z,76.58
2019-05-11T23:02:38.982Z,76.37
2019-05-11T23:05:08.715Z,76.38
2019-05-11T23:07:41.205Z,76.35
2019-05-11T23:10:08.884Z,76.00
2019-05-11T23:12:38.250Z,76.53
2019-05-11T23:15:14.586Z,76.59
2019-05-11T23:17:43.182Z,76.70
2019-05-11T23:20:11.872Z,77.09
2019-05-11T23:22:57.914Z,76.44
2019-05-11T23:25:19.245Z,76.49
2019-05-11T23:27:48.628Z,76.79
2019-05-11T23:30:19.738Z,76.55
2019-05-11T23:32:49.082Z,75.97
2019-05-11T23:35:18.842Z,76.03
2019-05-11T23:37:49.347Z,76.03
2019-05-11T23:40:18.859Z,76.14
2019-05-11T23:42:49.004Z,76.08
2019-05-11T23:45:18.980Z,76.27
2019-05-11T23:47:48.836Z,76.22
2019-05-11T23:50:19.467Z,76.63
2019-05-11T23:52:58.007Z,76.34
2019-05-11T23:55:19.361Z,76.48
2019-05-11T23:57:48.724Z,75.87
